Time;durP1;ratioP1;P1;durP2;ratioP2;P2;SDS_P1;SDS_P2;PMS_P1;PMS_P2;Temp;Humidity;BMP_temperature;BMP_pressure;BME280_temperature;BME280_humidity;BME280_pressure;Samples;Min_cycle;Max_cycle;Signal;HPM_P1;HPM_P2
2022/12/14 00:00:44;;;;;;;0.37;0.37;;;-2.10;99.90;;;;;;5074093;28;20941;-83
2022/12/14 00:03:12;;;;;;;0.30;0.30;;;-2.10;99.90;;;;;;5075245;28;20442;-83
2022/12/14 00:05:40;;;;;;;0.30;0.30;;;-2.00;99.90;;;;;;5074964;28;20453;-83
2022/12/14 00:08:08;;;;;;;0.40;0.40;;;-2.10;99.90;;;;;;5075251;28;20926;-83
2022/12/14 00:10:36;;;;;;;0.30;0.30;;;-2.10;99.90;;;;;;5075180;28;20449;-83
2022/12/14 00:13:04;;;;;;;0.30;0.30;;;-2.00;99.90;;;;;;5074753;28;20444;-83
2022/12/14 00:15:31;;;;;;;0.30;0.30;;;-2.00;99.90;;;;;;5075008;28;20798;-83
2022/12/14 00:17:58;;;;;;;1.17;0.67;;;-2.10;99.90;;;;;;5075038;28;20420;-84
2022/12/14 00:20:26;;;;;;;0.30;0.30;;;-2.10;99.90;;;;;;5074682;28;20489;-84
2022/12/14 00:22:54;;;;;;;0.50;0.50;;;-2.20;99.90;;;;;;5074943;28;20469;-83
2022/12/14 00:25:21;;;;;;;0.40;0.40;;;-2.20;99.90;;;;;;5074998;28;20542;-83
2022/12/14 00:27:49;;;;;;;2.93;2.83;;;-2.20;99.90;;;;;;5074543;28;20450;-84
2022/12/14 00:30:18;;;;;;;0.87;0.87;;;-2.20;99.90;;;;;;5074519;28;21016;-83
2022/12/14 00:32:45;;;;;;;0.70;0.70;;;-2.30;99.90;;;;;;5074755;28;20448;-83
2022/12/14 00:35:16;;;;;;;0.50;0.40;;;-2.30;99.90;;;;;;5074388;28;20945;-83
2022/12/14 00:37:43;;;;;;;1.13;1.13;;;-2.30;99.90;;;;;;5074658;28;20440;-83
2022/12/14 00:40:12;;;;;;;0.40;0.40;;;-2.30;99.90;;;;;;5074295;28;20420;-84
2022/12/14 00:42:39;;;;;;;0.40;0.40;;;-2.30;99.90;;;;;;5075727;28;20468;-84
2022/12/14 00:45:07;;;;;;;2.47;1.90;;;-2.40;99.90;;;;;;5074794;28;20408;-83
2022/12/14 00:47:34;;;;;;;0.40;0.40;;;-2.40;99.90;;;;;;5074450;28;20424;-83
2022/12/14 00:50:01;;;;;;;0.30;0.30;;;-2.40;99.90;;;;;;5074571;28;20424;-83
2022/12/14 00:52:28;;;;;;;0.63;0.63;;;-2.40;99.90;;;;;;5074317;28;20806;-83
2022/12/14 00:54:54;;;;;;;0.30;0.30;;;-2.40;99.90;;;;;;5074328;28;20810;-83
2022/12/14 00:57:23;;;;;;;0.30;0.30;;;-2.40;99.90;;;;;;5074221;28;20833;-83
2022/12/14 00:59:49;;;;;;;0.70;0.70;;;-2.30;99.90;;;;;;5074172;28;20424;-83
2022/12/14 01:02:16;;;;;;;0.30;0.30;;;-2.40;99.90;;;;;;5074020;28;20485;-83
2022/12/14 01:04:43;;;;;;;0.30;0.27;;;-2.30;99.90;;;;;;5074128;28;20420;-83
2022/12/14 01:07:10;;;;;;;0.30;0.30;;;-2.30;99.90;;;;;;5074038;28;20445;-83
2022/12/14 01:09:36;;;;;;;0.47;0.47;;;-2.20;99.90;;;;;;5074090;28;20424;-83
2022/12/14 01:12:03;;;;;;;0.30;0.30;;;-2.20;99.90;;;;;;5073693;28;20827;-83
2022/12/14 01:14:32;;;;;;;0.30;0.27;;;-2.10;99.90;;;;;;5073558;28;20798;-83
2022/12/14 01:16:58;;;;;;;0.80;0.80;;;-2.10;99.90;;;;;;5073856;28;20450;-83
2022/12/14 01:19:25;;;;;;;0.40;0.40;;;-2.00;99.90;;;;;;5073868;28;20425;-83
2022/12/14 01:21:52;;;;;;;2.20;1.63;;;-2.10;99.90;;;;;;5073688;28;20992;-83
2022/12/14 01:24:19;;;;;;;0.50;0.50;;;-2.10;99.90;;;;;;5073682;28;20436;-83
2022/12/14 01:26:46;;;;;;;0.47;0.47;;;-2.00;99.90;;;;;;5073806;28;20795;-83
2022/12/14 01:29:13;;;;;;;0.30;0.30;;;-2.00;99.90;;;;;;5073713;28;20453;-83
2022/12/14 01:31:41;;;;;;;0.60;0.60;;;-2.00;99.90;;;;;;5073745;28;20424;-83
2022/12/14 01:34:09;;;;;;;1.13;1.13;;;-2.00;99.90;;;;;;5073581;28;20466;-83
2022/12/14 01:36:38;;;;;;;0.87;0.77;;;-2.10;99.90;;;;;;5073317;28;20919;-83
2022/12/14 01:39:09;;;;;;;0.30;0.30;;;-2.00;99.90;;;;;;5073575;28;20420;-83
2022/12/14 01:41:39;;;;;;;0.30;0.30;;;-2.00;99.90;;;;;;5073269;28;20444;-83
2022/12/14 01:44:39;;;;;;;0.30;0.30;;;-2.00;99.90;;;;;;5073137;28;20459;-83
2022/12/14 01:47:15;;;;;;;0.33;0.33;;;-2.00;99.90;;;;;;5073109;28;20426;-83
2022/12/14 01:49:45;;;;;;;0.97;0.97;;;-2.00;99.90;;;;;;5073509;28;20406;-83
2022/12/14 01:52:15;;;;;;;0.37;0.37;;;-1.90;99.90;;;;;;5073341;28;20438;-83
2022/12/14 01:54:47;;;;;;;0.40;0.40;;;-1.90;99.90;;;;;;5073456;28;20749;-83
2022/12/14 01:57:17;;;;;;;0.30;0.30;;;-1.90;99.90;;;;;;5074187;28;20815;-83
2022/12/14 01:59:47;;;;;;;0.87;0.40;;;-1.90;99.90;;;;;;5073693;28;20434;-83
2022/12/14 02:02:17;;;;;;;1.23;0.67;;;-2.00;99.90;;;;;;5073196;28;20464;-83
2022/12/14 02:04:49;;;;;;;1.43;0.60;;;-1.90;99.90;;;;;;5073982;28;20391;-83
2022/12/14 02:07:17;;;;;;;0.30;0.30;;;-1.90;99.90;;;;;;5073309;28;20419;-83
2022/12/14 02:09:46;;;;;;;0.60;0.60;;;-2.00;99.90;;;;;;5073520;28;20449;-83
2022/12/14 02:12:17;;;;;;;0.30;0.30;;;-2.00;99.90;;;;;;5073226;28;20424;-83
2022/12/14 02:14:44;;;;;;;0.40;0.40;;;-2.00;99.90;;;;;;5073229;28;20412;-83
2022/12/14 02:17:13;;;;;;;0.50;0.50;;;-2.00;99.90;;;;;;5073223;28;20443;-83
2022/12/14 02:19:45;;;;;;;1.73;0.97;;;-1.90;99.90;;;;;;5073385;28;20460;-83
2022/12/14 02:22:43;;;;;;;0.53;0.40;;;-1.90;99.90;;;;;;5072830;28;20868;-83
2022/12/14 02:25:43;;;;;;;0.30;0.30;;;-1.90;99.90;;;;;;5076230;28;20447;-84
2022/12/14 02:28:29;;;;;;;0.40;0.40;;;-1.90;99.90;;;;;;5068708;28;20487;-83
2022/12/14 02:31:03;;;;;;;0.60;0.60;;;-1.90;99.90;;;;;;5077167;28;20438;-83
2022/12/14 02:33:41;;;;;;;0.50;0.50;;;-1.80;99.90;;;;;;5077030;28;20877;-83
2022/12/14 02:36:15;;;;;;;0.30;0.30;;;-1.90;99.90;;;;;;5076721;28;20950;-83
2022/12/14 02:38:50;;;;;;;2.63;1.53;;;-1.80;99.90;;;;;;5077036;28;20478;-83
2022/12/14 02:41:21;;;;;;;0.30;0.20;;;-1.90;99.90;;;;;;5076577;28;20973;-83
2022/12/14 02:43:57;;;;;;;0.60;0.60;;;-1.90;99.90;;;;;;5076624;28;20491;-83
2022/12/14 02:46:29;;;;;;;0.30;0.30;;;-1.90;99.90;;;;;;5076797;28;20408;-83
2022/12/14 02:49:01;;;;;;;0.73;0.57;;;-1.90;99.90;;;;;;5076946;28;20440;-83
2022/12/14 02:51:40;;;;;;;0.40;0.40;;;-1.90;99.90;;;;;;5076724;28;20421;-83
2022/12/14 02:54:13;;;;;;;1.23;0.83;;;-1.80;99.90;;;;;;5076596;28;20436;-83
2022/12/14 02:56:44;;;;;;;0.30;0.30;;;-1.80;99.90;;;;;;5076615;28;20404;-83
2022/12/14 02:59:13;;;;;;;0.60;0.60;;;-1.70;99.90;;;;;;5076525;28;20927;-83
2022/12/14 03:01:42;;;;;;;0.60;0.60;;;-1.80;99.90;;;;;;5076100;28;20485;-83
2022/12/14 03:04:09;;;;;;;1.13;0.50;;;-1.70;99.90;;;;;;5076389;28;20929;-83
2022/12/14 03:06:36;;;;;;;0.30;0.30;;;-1.70;99.90;;;;;;5076361;28;20441;-83
2022/12/14 03:09:06;;;;;;;0.73;0.50;;;-1.70;99.90;;;;;;5076310;28;20420;-83
2022/12/14 03:11:40;;;;;;;0.30;0.30;;;-1.70;99.90;;;;;;5076348;28;20839;-83
2022/12/14 03:14:10;;;;;;;0.77;0.77;;;-1.60;99.90;;;;;;5076248;28;20468;-83
2022/12/14 03:16:41;;;;;;;0.50;0.50;;;-1.60;99.90;;;;;;5075910;28;20405;-83
2022/12/14 03:19:15;;;;;;;0.60;0.60;;;-1.70;99.90;;;;;;5076204;28;20430;-83
2022/12/14 03:21:47;;;;;;;0.40;0.40;;;-1.80;99.90;;;;;;5075779;28;20814;-83
2022/12/14 03:24:18;;;;;;;0.30;0.30;;;-1.80;99.90;;;;;;5076305;28;20473;-83
2022/12/14 03:26:49;;;;;;;0.50;0.50;;;-1.80;99.90;;;;;;5076391;28;20396;-83
2022/12/14 03:29:21;;;;;;;0.30;0.30;;;-1.80;99.90;;;;;;5075998;28;20434;-83
2022/12/14 03:31:52;;;;;;;0.30;0.30;;;-1.70;99.90;;;;;;5075719;28;20426;-83
2022/12/14 03:34:25;;;;;;;0.40;0.40;;;-1.70;99.90;;;;;;5075899;28;20444;-83
2022/12/14 03:36:58;;;;;;;0.57;0.50;;;-1.60;99.90;;;;;;5075606;28;20433;-83
2022/12/14 03:39:28;;;;;;;0.30;0.30;;;-1.70;99.90;;;;;;5075910;28;20437;-83
2022/12/14 03:42:00;;;;;;;0.30;0.30;;;-1.70;99.90;;;;;;5075478;28;21078;-83
2022/12/14 03:44:35;;;;;;;0.80;0.50;;;-1.70;99.90;;;;;;5075722;28;20462;-83
2022/12/14 03:47:15;;;;;;;0.30;0.30;;;-1.60;99.90;;;;;;5075688;28;20412;-82
2022/12/14 03:49:55;;;;;;;0.30;0.30;;;-1.60;99.90;;;;;;5075693;28;20415;-83
2022/12/14 03:52:28;;;;;;;0.30;0.30;;;-1.60;99.90;;;;;;5075305;28;20474;-82
2022/12/14 03:55:07;;;;;;;0.80;0.67;;;-1.60;99.90;;;;;;5075533;28;20405;-83
2022/12/14 03:57:55;;;;;;;0.30;0.23;;;-1.60;99.90;;;;;;5075245;28;20496;-83
2022/12/14 04:00:24;;;;;;;0.30;0.20;;;-1.70;99.90;;;;;;5075493;28;20408;-83
2022/12/14 04:02:59;;;;;;;0.60;0.60;;;-1.60;99.90;;;;;;5074999;28;20486;-83
2022/12/14 04:05:32;;;;;;;0.70;0.70;;;-1.50;99.90;;;;;;5075340;28;20435;-83
2022/12/14 04:08:06;;;;;;;1.50;1.33;;;-1.60;99.90;;;;;;5075333;28;20437;-83
2022/12/14 04:19:05;;;;;;;0.30;0.30;;;-1.50;99.90;;;;;;5074899;28;20784;-82
2022/12/14 04:21:40;;;;;;;2.00;1.90;;;-1.50;99.90;;;;;;5074980;28;20474;-83
2022/12/14 04:27:00;;;;;;;0.40;0.30;;;-1.50;99.90;;;;;;5074689;28;20376;-83
2022/12/14 04:32:17;;;;;;;0.50;0.50;;;-1.50;99.90;;;;;;5065651;28;20429;-83
2022/12/14 04:34:49;;;;;;;0.30;0.30;;;-1.40;99.90;;;;;;5074768;28;20434;-82
2022/12/14 04:37:22;;;;;;;0.40;0.40;;;-1.50;99.90;;;;;;5074695;28;20412;-82
2022/12/14 04:39:52;;;;;;;0.30;0.30;;;-1.50;99.90;;;;;;5074382;28;20429;-83
2022/12/14 04:42:23;;;;;;;0.30;0.30;;;-1.50;99.90;;;;;;5074419;28;20485;-83
2022/12/14 04:44:54;;;;;;;0.40;0.40;;;-1.50;99.90;;;;;;5074252;28;20971;-83
2022/12/14 04:47:28;;;;;;;1.00;1.00;;;-1.60;99.90;;;;;;5073867;28;20403;-83
2022/12/14 04:49:59;;;;;;;0.40;0.30;;;-1.50;99.90;;;;;;5074398;28;20773;-83
2022/12/14 04:52:31;;;;;;;0.30;0.30;;;-1.50;99.90;;;;;;5074482;28;22656;-83
2022/12/14 04:55:03;;;;;;;0.50;0.50;;;-1.50;99.90;;;;;;5074384;28;20411;-82
2022/12/14 04:57:35;;;;;;;0.60;0.60;;;-1.50;99.90;;;;;;5074318;28;20412;-83
2022/12/14 05:00:04;;;;;;;0.33;0.33;;;-1.40;99.90;;;;;;5073953;28;20441;-83
2022/12/14 05:02:43;;;;;;;0.30;0.30;;;-1.50;99.90;;;;;;5074104;28;20497;-83
2022/12/14 05:05:16;;;;;;;0.30;0.30;;;-1.40;99.90;;;;;;5074223;28;20411;-83
2022/12/14 05:07:52;;;;;;;0.80;0.80;;;-1.40;99.90;;;;;;5074133;28;20429;-83
2022/12/14 05:10:25;;;;;;;0.40;0.30;;;-1.40;99.90;;;;;;5073782;28;20901;-82
2022/12/14 05:13:00;;;;;;;1.27;1.27;;;-1.40;99.90;;;;;;5073942;28;20473;-83
2022/12/14 05:15:31;;;;;;;0.30;0.30;;;-1.50;99.90;;;;;;5073999;28;20412;-83
2022/12/14 05:18:02;;;;;;;0.30;0.30;;;-1.60;99.90;;;;;;5074227;28;20407;-82
2022/12/14 05:20:29;;;;;;;0.30;0.30;;;-1.50;99.90;;;;;;5074249;28;20783;-82
2022/12/14 05:22:57;;;;;;;2.30;2.20;;;-1.50;99.90;;;;;;5073654;28;20466;-82
2022/12/14 05:25:24;;;;;;;0.40;0.40;;;-1.40;99.90;;;;;;5073619;28;20427;-82
2022/12/14 05:27:51;;;;;;;0.57;0.57;;;-1.40;99.90;;;;;;5073475;28;20456;-81
2022/12/14 05:30:18;;;;;;;0.87;0.87;;;-1.40;99.90;;;;;;5073409;28;20919;-82
2022/12/14 05:32:45;;;;;;;1.57;1.47;;;-1.40;99.90;;;;;;5073606;28;20469;-82
2022/12/14 05:35:13;;;;;;;0.70;0.70;;;-1.30;99.90;;;;;;5073611;28;20428;-82
2022/12/14 05:37:39;;;;;;;0.70;0.60;;;-1.30;99.90;;;;;;5073612;28;20445;-82
2022/12/14 05:40:10;;;;;;;0.80;0.67;;;-1.30;99.90;;;;;;5073236;28;20945;-81
2022/12/14 05:42:37;;;;;;;1.43;1.43;;;-1.30;99.90;;;;;;5073228;28;20456;-82
2022/12/14 05:45:04;;;;;;;0.30;0.20;;;-1.40;99.90;;;;;;5073571;28;20409;-82
2022/12/14 05:47:31;;;;;;;0.30;0.30;;;-1.30;99.90;;;;;;5073488;28;20446;-82
2022/12/14 05:49:58;;;;;;;0.30;0.30;;;-1.40;99.90;;;;;;5073170;28;20941;-81
2022/12/14 05:52:25;;;;;;;1.03;0.60;;;-1.40;99.90;;;;;;5073330;28;20809;-82
2022/12/14 05:54:52;;;;;;;0.70;0.70;;;-1.40;99.90;;;;;;5073404;28;20441;-82
2022/12/14 05:57:20;;;;;;;0.40;0.30;;;-1.40;99.90;;;;;;5073594;28;20452;-82
2022/12/14 05:59:47;;;;;;;0.60;0.43;;;-1.40;99.90;;;;;;5073297;28;20424;-82
2022/12/14 06:02:14;;;;;;;0.30;0.30;;;-1.40;99.90;;;;;;5073715;28;20481;-82
2022/12/14 06:04:41;;;;;;;0.30;0.20;;;-1.40;99.90;;;;;;5073017;28;20920;-82
2022/12/14 06:07:10;;;;;;;0.30;0.30;;;-1.40;99.90;;;;;;5073243;28;20450;-82
2022/12/14 06:09:37;;;;;;;0.30;0.30;;;-1.30;99.90;;;;;;5073378;28;20446;-81
2022/12/14 06:12:04;;;;;;;0.30;0.30;;;-1.30;99.90;;;;;;5073571;28;20870;-81
2022/12/14 06:14:32;;;;;;;1.43;0.87;;;-1.30;99.90;;;;;;5073159;28;20449;-82
2022/12/14 06:16:59;;;;;;;0.30;0.30;;;-1.20;99.90;;;;;;5072866;28;20425;-82
2022/12/14 06:19:25;;;;;;;0.60;0.60;;;-1.30;99.90;;;;;;5072874;28;20952;-82
2022/12/14 06:21:52;;;;;;;0.63;0.63;;;-1.20;99.90;;;;;;5073484;28;20777;-82
2022/12/14 06:24:19;;;;;;;1.90;0.50;;;-1.20;99.90;;;;;;5072731;28;20977;-81
2022/12/14 06:26:46;;;;;;;0.30;0.30;;;-1.20;99.90;;;;;;5073136;28;20944;-81
2022/12/14 06:29:16;;;;;;;1.60;0.87;;;-1.20;99.90;;;;;;5073578;28;20792;-81
2022/12/14 06:31:45;;;;;;;1.17;0.60;;;-1.10;99.90;;;;;;5073090;28;20440;-82
2022/12/14 06:34:12;;;;;;;0.43;0.43;;;-1.10;99.90;;;;;;5072852;28;20468;-82
2022/12/14 06:36:40;;;;;;;0.50;0.50;;;-1.10;99.90;;;;;;5072972;28;20422;-82
2022/12/14 06:39:10;;;;;;;0.50;0.50;;;-1.10;99.90;;;;;;5072673;28;20941;-82
2022/12/14 06:41:37;;;;;;;0.30;0.30;;;-1.00;99.90;;;;;;5072620;28;20960;-82
2022/12/14 06:44:05;;;;;;;0.60;0.57;;;-1.00;99.90;;;;;;5072385;28;20492;-82
2022/12/14 06:46:33;;;;;;;0.43;0.43;;;-1.00;99.90;;;;;;5072914;28;20612;-82
2022/12/14 06:49:01;;;;;;;0.77;0.77;;;-1.00;99.90;;;;;;5072861;28;20449;-82
2022/12/14 06:51:28;;;;;;;0.30;0.30;;;-1.10;99.90;;;;;;5072855;28;20472;-82
2022/12/14 06:53:56;;;;;;;0.30;0.30;;;-1.10;99.90;;;;;;5073006;28;20493;-81
2022/12/14 06:56:25;;;;;;;0.77;0.47;;;-1.00;99.90;;;;;;5072818;28;20442;-82
2022/12/14 06:58:53;;;;;;;2.47;2.23;;;-1.10;99.90;;;;;;5072552;28;20450;-82
2022/12/14 07:01:22;;;;;;;0.30;0.30;;;-1.10;99.90;;;;;;5072524;28;20425;-83
2022/12/14 07:03:50;;;;;;;0.30;0.30;;;-1.20;99.90;;;;;;5072818;28;20494;-83
2022/12/14 07:06:18;;;;;;;0.30;0.30;;;-1.20;99.90;;;;;;5072422;28;20821;-82
2022/12/14 07:08:45;;;;;;;0.93;0.93;;;-1.20;99.90;;;;;;5073031;28;20445;-82
2022/12/14 07:11:14;;;;;;;0.40;0.40;;;-1.10;99.90;;;;;;5074931;28;20476;-83
2022/12/14 07:13:41;;;;;;;2.60;1.03;;;-1.10;99.90;;;;;;5076205;28;20873;-82
2022/12/14 07:16:14;;;;;;;0.30;0.30;;;-1.10;99.90;;;;;;5076312;28;20441;-82
2022/12/14 07:18:41;;;;;;;0.30;0.20;;;-1.10;99.90;;;;;;5075928;28;20838;-82
2022/12/14 07:21:09;;;;;;;1.03;1.03;;;-1.00;99.90;;;;;;5076440;28;20806;-82
2022/12/14 07:23:39;;;;;;;0.50;0.50;;;-1.10;99.90;;;;;;5075896;28;20511;-82
2022/12/14 07:26:08;;;;;;;0.40;0.40;;;-1.10;99.90;;;;;;5076064;28;20449;-82
2022/12/14 07:28:36;;;;;;;0.57;0.57;;;-1.10;99.90;;;;;;5075996;28;20424;-82
2022/12/14 07:31:05;;;;;;;0.97;0.77;;;-1.10;99.90;;;;;;5076080;28;20421;-82
2022/12/14 07:33:32;;;;;;;1.13;0.57;;;-1.20;99.90;;;;;;5075988;28;20465;-82
2022/12/14 07:36:03;;;;;;;0.60;0.60;;;-1.20;99.90;;;;;;5075563;28;20940;-82
2022/12/14 07:38:30;;;;;;;0.30;0.30;;;-1.20;99.90;;;;;;5075895;28;20858;-85
2022/12/14 07:41:03;;;;;;;0.40;0.37;;;-1.20;99.90;;;;;;5076474;28;20449;-83
2022/12/14 07:43:30;;;;;;;2.60;1.60;;;-1.30;99.90;;;;;;5075321;28;20498;-83
2022/12/14 07:46:03;;;;;;;1.33;1.13;;;-1.30;99.90;;;;;;5076397;28;20460;-83
2022/12/14 07:48:30;;;;;;;0.47;0.47;;;-1.20;99.90;;;;;;5075426;28;20433;-83
2022/12/14 07:51:02;;;;;;;0.97;0.97;;;-1.30;99.90;;;;;;5075588;28;20449;-83
2022/12/14 07:53:29;;;;;;;0.90;0.90;;;-1.20;99.90;;;;;;5075274;28;20988;-83
2022/12/14 07:55:59;;;;;;;0.30;0.30;;;-1.20;99.90;;;;;;5075230;28;20453;-83
2022/12/14 07:58:27;;;;;;;1.17;0.60;;;-1.30;99.90;;;;;;5075391;28;20941;-83
2022/12/14 08:00:54;;;;;;;1.50;1.40;;;-1.30;99.90;;;;;;5075467;28;20846;-83
2022/12/14 08:03:21;;;;;;;0.30;0.30;;;-1.10;99.90;;;;;;5074927;28;20951;-83
2022/12/14 08:05:48;;;;;;;0.60;0.60;;;-1.20;99.90;;;;;;5075294;28;20452;-83
2022/12/14 08:08:15;;;;;;;0.77;0.40;;;-1.20;99.90;;;;;;5075322;28;20424;-83
2022/12/14 08:10:42;;;;;;;0.47;0.47;;;-1.10;99.90;;;;;;5074971;28;20945;-83
2022/12/14 08:13:09;;;;;;;2.80;2.70;;;-1.10;99.90;;;;;;5074842;28;20436;-83
2022/12/14 08:15:38;;;;;;;0.50;0.50;;;-1.10;99.90;;;;;;5075112;28;20452;-83
2022/12/14 08:18:05;;;;;;;0.70;0.70;;;-1.10;99.90;;;;;;5075073;28;20449;-83
2022/12/14 08:20:34;;;;;;;2.10;0.97;;;-1.10;99.90;;;;;;5075020;28;20420;-83
2022/12/14 08:23:00;;;;;;;0.67;0.67;;;-1.00;99.90;;;;;;5073714;28;20481;-83
2022/12/14 08:25:27;;;;;;;0.40;0.40;;;-0.90;99.90;;;;;;5074952;28;20449;-83
2022/12/14 08:27:54;;;;;;;0.67;0.67;;;-0.90;99.90;;;;;;5074830;28;20452;-83
2022/12/14 08:30:21;;;;;;;0.40;0.40;;;-0.80;99.90;;;;;;5074595;28;20419;-82
2022/12/14 08:32:49;;;;;;;0.30;0.30;;;-0.80;99.90;;;;;;5074664;28;20457;-83
2022/12/14 08:35:16;;;;;;;0.50;0.50;;;-0.70;99.90;;;;;;5074376;28;20990;-83
2022/12/14 08:37:42;;;;;;;0.60;0.60;;;-0.70;99.90;;;;;;5074703;28;20429;-83
2022/12/14 08:40:11;;;;;;;0.40;0.40;;;-0.70;99.90;;;;;;5074641;28;20854;-83
2022/12/14 08:42:37;;;;;;;0.67;0.67;;;-0.60;99.90;;;;;;5074090;28;20480;-82
2022/12/14 08:45:05;;;;;;;1.97;0.60;;;-0.60;99.90;;;;;;5074568;28;20437;-83
2022/12/14 08:47:32;;;;;;;1.70;0.70;;;-0.60;99.90;;;;;;5074459;28;20449;-82
2022/12/14 08:50:00;;;;;;;0.80;0.80;;;-0.50;99.90;;;;;;5074402;28;20469;-83
2022/12/14 08:52:27;;;;;;;0.50;0.50;;;-0.50;99.90;;;;;;5074325;28;20462;-83
2022/12/14 08:54:54;;;;;;;2.33;0.97;;;-0.50;99.90;;;;;;5074373;28;20477;-83
2022/12/14 08:57:21;;;;;;;0.80;0.80;;;-0.40;99.90;;;;;;5074316;28;20450;-82
2022/12/14 08:59:48;;;;;;;0.50;0.50;;;-0.30;99.90;;;;;;5074251;28;20445;-82
2022/12/14 09:02:14;;;;;;;1.53;0.77;;;-0.20;99.90;;;;;;5073838;28;20435;-83
2022/12/14 09:04:41;;;;;;;0.40;0.40;;;-0.10;99.90;;;;;;5073858;28;20485;-82
2022/12/14 09:07:09;;;;;;;2.53;1.17;;;-0.10;99.90;;;;;;5073810;28;20437;-83
2022/12/14 09:09:37;;;;;;;2.10;0.87;;;0.00;99.90;;;;;;5074148;28;20429;-82
2022/12/14 09:12:05;;;;;;;0.40;0.40;;;-0.10;99.90;;;;;;5074066;28;20408;-82
2022/12/14 09:14:33;;;;;;;0.40;0.40;;;0.00;99.90;;;;;;5073799;28;20536;-83
2022/12/14 09:17:00;;;;;;;1.00;0.80;;;0.00;99.90;;;;;;5073980;28;20453;-83
2022/12/14 09:19:27;;;;;;;1.00;1.00;;;0.10;99.90;;;;;;5073893;28;20448;-84
2022/12/14 09:21:54;;;;;;;0.40;0.40;;;0.10;99.90;;;;;;5073622;28;20450;-83
2022/12/14 09:24:23;;;;;;;0.30;0.30;;;0.20;99.90;;;;;;5073754;28;20500;-84
2022/12/14 09:26:50;;;;;;;0.83;0.83;;;0.20;99.90;;;;;;5073816;28;20458;-84
2022/12/14 09:29:18;;;;;;;2.50;0.80;;;0.10;99.90;;;;;;5073879;28;20431;-84
2022/12/14 09:31:45;;;;;;;0.63;0.63;;;0.20;99.90;;;;;;5073724;28;20457;-84
2022/12/14 09:34:12;;;;;;;0.50;0.50;;;0.10;99.90;;;;;;5073602;28;20461;-85
2022/12/14 09:36:39;;;;;;;0.60;0.60;;;0.20;99.90;;;;;;5073781;28;20500;-85
2022/12/14 09:39:06;;;;;;;0.80;0.70;;;0.20;99.90;;;;;;5073700;28;20456;-84
2022/12/14 09:41:50;;;;;;;3.30;0.73;;;0.20;99.90;;;;;;5073349;28;20488;-86
2022/12/14 09:44:24;;;;;;;0.73;0.73;;;0.10;99.90;;;;;;5073167;28;20475;-85
2022/12/14 09:46:59;;;;;;;2.13;2.03;;;0.20;99.90;;;;;;5073765;28;20408;-85
2022/12/14 09:49:30;;;;;;;0.93;0.73;;;0.20;99.90;;;;;;5073619;28;20487;-85
2022/12/14 09:52:00;;;;;;;0.30;0.30;;;0.10;99.90;;;;;;5073576;28;20426;-85
2022/12/14 09:54:29;;;;;;;1.57;1.03;;;0.10;99.90;;;;;;5073610;28;20468;-86
2022/12/14 09:57:01;;;;;;;0.50;0.50;;;0.20;99.90;;;;;;5073492;28;20446;-85
2022/12/14 09:59:30;;;;;;;0.50;0.50;;;0.10;99.90;;;;;;5073494;28;20524;-85
2022/12/14 10:02:14;;;;;;;0.30;0.30;;;0.10;99.90;;;;;;5073466;28;20445;-85
2022/12/14 10:04:51;;;;;;;0.30;0.30;;;0.10;99.90;;;;;;5073320;28;20470;-85
2022/12/14 10:07:24;;;;;;;0.60;0.60;;;0.10;99.90;;;;;;5073384;28;20431;-85
2022/12/14 10:09:57;;;;;;;0.30;0.30;;;0.20;99.90;;;;;;5073091;28;20434;-85
2022/12/14 10:12:45;;;;;;;0.60;0.60;;;0.20;99.90;;;;;;5073289;28;20419;-84
2022/12/14 10:15:21;;;;;;;0.60;0.60;;;0.20;99.90;;;;;;5073368;28;20411;-85
2022/12/14 10:18:13;;;;;;;0.30;0.30;;;0.30;99.90;;;;;;5073312;28;20408;-85
2022/12/14 10:20:47;;;;;;;1.47;0.83;;;0.30;99.90;;;;;;5073281;28;20426;-85
2022/12/14 10:23:19;;;;;;;0.57;0.57;;;0.30;99.90;;;;;;5073121;28;20497;-85
2022/12/14 10:25:49;;;;;;;2.30;0.80;;;0.30;99.90;;;;;;5073174;28;20434;-85
2022/12/14 10:28:20;;;;;;;0.67;0.67;;;0.40;99.90;;;;;;5073258;28;20554;-85
2022/12/14 10:30:50;;;;;;;4.87;1.10;;;0.40;99.90;;;;;;5073575;28;20485;-85
2022/12/14 10:33:23;;;;;;;0.30;0.30;;;0.40;99.90;;;;;;5073217;28;20834;-85
2022/12/14 10:35:52;;;;;;;1.90;1.80;;;0.50;99.90;;;;;;5073162;28;20440;-86
2022/12/14 10:38:26;;;;;;;0.30;0.30;;;0.60;99.90;;;;;;5073146;28;20445;-85
2022/12/14 10:40:59;;;;;;;1.47;1.47;;;0.60;99.90;;;;;;5073218;28;20408;-85
2022/12/14 10:43:38;;;;;;;1.60;1.13;;;0.70;99.90;;;;;;5072599;28;20578;-85
2022/12/14 10:46:12;;;;;;;1.50;0.77;;;0.70;99.90;;;;;;5075146;28;20434;-85
2022/12/14 10:48:47;;;;;;;0.60;0.60;;;0.70;99.90;;;;;;5076980;28;20434;-85
2022/12/14 10:51:19;;;;;;;0.60;0.60;;;0.70;99.90;;;;;;5076899;28;20439;-85
2022/12/14 10:53:50;;;;;;;0.83;0.83;;;0.80;99.90;;;;;;5076749;28;20460;-85
2022/12/14 10:56:21;;;;;;;0.50;0.50;;;0.80;99.90;;;;;;5076754;28;20444;-85
2022/12/14 10:59:30;;;;;;;0.80;0.73;;;0.80;99.90;;;;;;5076977;28;20438;-85
2022/12/14 11:02:05;;;;;;;0.60;0.60;;;0.80;99.90;;;;;;5029109;28;20449;-85
2022/12/14 11:04:36;;;;;;;2.20;0.80;;;0.70;99.90;;;;;;5076509;28;20508;-85
2022/12/14 11:07:05;;;;;;;2.10;1.00;;;0.70;99.90;;;;;;5076478;28;20426;-85
2022/12/14 11:09:32;;;;;;;0.77;0.60;;;0.70;99.90;;;;;;5076431;28;20468;-84
2022/12/14 11:12:03;;;;;;;0.70;0.40;;;0.70;99.90;;;;;;5076489;28;20432;-85
2022/12/14 11:14:30;;;;;;;0.50;0.50;;;0.70;99.90;;;;;;5076355;28;20466;-84
2022/12/14 11:16:57;;;;;;;1.33;0.90;;;0.70;99.90;;;;;;5076318;28;20455;-85
2022/12/14 11:19:29;;;;;;;0.73;0.73;;;0.80;99.90;;;;;;5076319;28;20445;-85
2022/12/14 11:22:10;;;;;;;0.40;0.40;;;0.80;99.90;;;;;;5076258;28;20438;-85
2022/12/14 11:24:45;;;;;;;1.13;0.70;;;0.80;99.90;;;;;;5076001;28;20999;-84
2022/12/14 11:27:16;;;;;;;0.80;0.80;;;0.90;99.90;;;;;;5076150;28;20503;-84
2022/12/14 11:29:46;;;;;;;1.00;0.70;;;0.90;99.90;;;;;;5076993;28;20450;-84
2022/12/14 11:32:19;;;;;;;0.40;0.40;;;0.90;99.90;;;;;;5075977;28;20446;-84
2022/12/14 11:34:56;;;;;;;0.40;0.40;;;1.00;99.90;;;;;;5076565;28;20425;-85
2022/12/14 11:37:25;;;;;;;0.50;0.50;;;1.00;99.90;;;;;;5075970;28;20503;-84
2022/12/14 11:39:54;;;;;;;0.40;0.40;;;1.00;99.90;;;;;;5075573;28;20441;-84
2022/12/14 11:42:22;;;;;;;0.33;0.33;;;1.10;99.90;;;;;;5075870;28;20454;-85
2022/12/14 11:44:50;;;;;;;1.60;1.40;;;1.10;99.90;;;;;;5075396;28;20860;-84
2022/12/14 11:47:20;;;;;;;1.10;0.40;;;1.10;99.90;;;;;;5075332;28;20458;-84
2022/12/14 11:49:50;;;;;;;0.50;0.50;;;1.10;99.90;;;;;;5075422;28;20446;-84
2022/12/14 11:52:19;;;;;;;0.67;0.67;;;1.10;99.90;;;;;;5075460;28;20431;-84
2022/12/14 11:54:48;;;;;;;0.40;0.40;;;1.10;99.90;;;;;;5075510;28;20841;-84
2022/12/14 11:57:22;;;;;;;1.53;0.73;;;1.20;99.90;;;;;;5075359;28;20461;-84
2022/12/14 11:59:52;;;;;;;4.20;0.70;;;1.30;99.90;;;;;;5075520;28;20429;-84
2022/12/14 12:02:25;;;;;;;0.40;0.40;;;1.40;99.90;;;;;;5075030;28;20460;-83
2022/12/14 12:04:58;;;;;;;1.00;0.97;;;1.50;99.90;;;;;;5075525;28;20474;-86
2022/12/14 12:07:29;;;;;;;0.50;0.50;;;1.60;99.90;;;;;;5076279;28;20457;-86
2022/12/14 12:10:01;;;;;;;2.20;1.37;;;1.70;99.90;;;;;;5075648;28;20437;-86
2022/12/14 12:12:28;;;;;;;1.20;1.20;;;1.70;99.90;;;;;;5075576;28;20465;-85
2022/12/14 12:14:57;;;;;;;0.30;0.30;;;1.80;99.90;;;;;;5075408;28;20441;-86
2022/12/14 12:17:41;;;;;;;0.50;0.50;;;1.80;99.90;;;;;;5075499;28;20476;-84
2022/12/14 12:20:26;;;;;;;2.43;0.70;;;1.90;99.90;;;;;;5072967;28;20841;-85
2022/12/14 12:22:57;;;;;;;1.60;0.90;;;1.80;99.90;;;;;;5075356;28;20475;-85
2022/12/14 12:25:26;;;;;;;0.97;0.80;;;1.80;99.90;;;;;;5075090;28;20470;-85
2022/12/14 12:28:02;;;;;;;2.63;1.40;;;1.70;99.90;;;;;;5075028;28;20806;-85
2022/12/14 12:30:33;;;;;;;0.60;0.60;;;1.70;99.90;;;;;;5075033;28;20461;-85
2022/12/14 12:33:07;;;;;;;0.93;0.50;;;1.70;99.90;;;;;;5074883;28;20466;-85
2022/12/14 12:35:42;;;;;;;0.40;0.40;;;1.70;99.90;;;;;;5075024;28;20426;-86
2022/12/14 12:38:18;;;;;;;1.20;1.20;;;1.70;99.90;;;;;;5075159;28;20437;-85
2022/12/14 12:40:55;;;;;;;0.43;0.43;;;1.70;99.90;;;;;;5074855;28;20938;-85
2022/12/14 12:43:27;;;;;;;1.73;1.50;;;1.70;99.90;;;;;;5074583;28;20506;-85
2022/12/14 12:45:57;;;;;;;1.47;1.37;;;1.70;99.90;;;;;;5074593;28;20975;-85
2022/12/14 12:48:29;;;;;;;0.40;0.40;;;1.70;99.90;;;;;;5074736;28;20452;-85
2022/12/14 12:51:01;;;;;;;0.77;0.77;;;1.70;99.90;;;;;;5074651;28;20438;-85
2022/12/14 12:53:33;;;;;;;1.70;1.13;;;1.70;99.90;;;;;;5074499;28;20440;-85
2022/12/14 12:56:06;;;;;;;0.30;0.30;;;1.70;99.90;;;;;;5075400;28;20931;-85
2022/12/14 12:58:35;;;;;;;0.30;0.20;;;1.70;99.90;;;;;;5074500;28;20487;-84
2022/12/14 13:01:10;;;;;;;15.43;1.57;;;1.70;99.90;;;;;;5073962;28;20491;-85
2022/12/14 13:03:39;;;;;;;11.00;3.37;;;1.70;99.90;;;;;;5074439;28;20477;-85
2022/12/14 13:06:17;;;;;;;1.30;1.17;;;1.60;99.90;;;;;;5073978;28;20503;-84
2022/12/14 13:08:46;;;;;;;2.10;0.93;;;1.60;99.90;;;;;;5074317;28;20834;-84
2022/12/14 13:11:18;;;;;;;1.20;1.20;;;1.60;99.90;;;;;;5074831;28;20543;-79
2022/12/14 13:13:50;;;;;;;1.17;0.80;;;1.60;99.90;;;;;;5073888;28;20485;-79
2022/12/14 13:16:21;;;;;;;2.03;1.63;;;1.50;99.90;;;;;;5074129;28;20457;-79
2022/12/14 13:18:51;;;;;;;3.50;2.80;;;1.40;99.90;;;;;;5073799;28;20425;-79
2022/12/14 13:21:29;;;;;;;3.33;1.07;;;1.40;99.90;;;;;;5073711;28;20444;-79